Time;durP1;ratioP1;P1;durP2;ratioP2;P2;SDS_P1;SDS_P2;PMS_P1;PMS_P2;Temp;Humidity;BMP_temperature;BMP_pressure;BME280_temperature;BME280_humidity;BME280_pressure;Samples;Min_cycle;Max_cycle;Signal;HPM_P1;HPM_P2
2024/04/17 00:02:08;;;;;;;14.85;3.47;;;7.30;99.90;;;;;;5454206;26;20002;-89
2024/04/17 00:04:34;;;;;;;8.65;2.33;;;7.30;99.90;;;;;;5453342;26;20334;-87
2024/04/17 00:07:00;;;;;;;12.43;3.00;;;7.40;99.90;;;;;;5454237;26;19995;-88
2024/04/17 00:09:25;;;;;;;14.40;2.45;;;7.30;99.90;;;;;;5454357;26;20036;-87
2024/04/17 00:11:51;;;;;;;9.77;3.00;;;7.30;99.90;;;;;;5453523;26;20009;-87
2024/04/17 00:14:16;;;;;;;13.85;2.28;;;7.30;99.90;;;;;;5454004;26;20009;-87
2024/04/17 00:16:42;;;;;;;15.27;3.13;;;7.30;99.90;;;;;;5453498;26;20010;-87
2024/04/17 00:19:07;;;;;;;13.10;2.22;;;7.30;99.90;;;;;;5454098;26;20003;-88
2024/04/17 00:21:33;;;;;;;9.55;2.30;;;7.30;99.90;;;;;;5454118;26;20299;-87
2024/04/17 00:23:59;;;;;;;12.25;2.90;;;7.30;99.90;;;;;;5453639;26;20002;-88
2024/04/17 00:26:24;;;;;;;10.90;1.88;;;7.30;99.90;;;;;;5453980;26;19999;-87
2024/04/17 00:28:50;;;;;;;13.07;2.30;;;7.30;99.90;;;;;;5453964;26;20336;-87
2024/04/17 00:31:15;;;;;;;14.63;3.10;;;7.30;99.90;;;;;;5453154;26;20010;-87
2024/04/17 00:33:41;;;;;;;9.32;2.47;;;7.30;99.90;;;;;;5453629;26;20002;-89
2024/04/17 00:36:06;;;;;;;8.40;1.95;;;7.20;99.90;;;;;;5453509;26;20010;-88
2024/04/17 00:38:32;;;;;;;7.82;1.67;;;7.20;99.90;;;;;;5452522;26;20451;-88
2024/04/17 00:40:57;;;;;;;16.58;2.53;;;7.10;99.90;;;;;;5453265;26;20055;-88
2024/04/17 00:43:23;;;;;;;13.05;1.83;;;8.00;99.90;;;;;;5453124;26;19999;-88
2024/04/17 00:45:52;;;;;;;7.68;2.20;;;7.10;99.90;;;;;;5452928;26;20010;-88
2024/04/17 00:48:18;;;;;;;9.55;2.30;;;7.10;99.90;;;;;;5453496;26;20384;-87
2024/04/17 00:50:48;;;;;;;10.32;2.88;;;7.10;99.90;;;;;;5453461;26;19999;-87
2024/04/17 00:53:17;;;;;;;13.07;2.67;;;7.10;99.90;;;;;;5453083;26;20470;-87
2024/04/17 00:55:43;;;;;;;9.02;2.53;;;7.20;99.90;;;;;;5453335;26;19999;-88
2024/04/17 00:58:09;;;;;;;9.55;2.70;;;7.20;99.90;;;;;;5453355;26;20017;-88
2024/04/17 01:00:36;;;;;;;14.55;2.67;;;7.20;99.90;;;;;;5469531;26;20458;-89
2024/04/17 01:03:02;;;;;;;10.27;2.30;;;7.20;99.90;;;;;;5456172;26;20014;-88
2024/04/17 01:05:27;;;;;;;8.07;2.42;;;7.20;99.90;;;;;;5456503;26;20003;-87
2024/04/17 01:07:53;;;;;;;7.82;1.42;;;7.30;99.90;;;;;;5456347;26;20003;-87
2024/04/17 01:10:18;;;;;;;6.32;1.77;;;7.30;99.90;;;;;;5457224;26;20349;-88
2024/04/17 01:12:44;;;;;;;2.72;1.40;;;7.30;99.90;;;;;;5456602;26;19999;-87
2024/04/17 01:15:10;;;;;;;7.57;1.92;;;7.40;99.90;;;;;;5456244;26;20013;-87
2024/04/17 01:17:36;;;;;;;6.80;1.70;;;7.40;99.90;;;;;;5456531;26;20361;-89
2024/04/17 01:20:03;;;;;;;9.40;1.98;;;7.40;99.90;;;;;;5456281;26;20034;-89
2024/04/17 01:22:28;;;;;;;9.73;2.03;;;7.40;99.90;;;;;;5456801;26;19995;-90
2024/04/17 01:24:54;;;;;;;5.40;1.67;;;7.50;99.90;;;;;;5456653;26;20441;-91
2024/04/17 01:27:19;;;;;;;8.20;2.28;;;7.50;99.90;;;;;;5456140;26;19995;-89
2024/04/17 01:29:45;;;;;;;7.50;1.63;;;7.50;99.90;;;;;;5456485;26;20013;-90
2024/04/17 01:32:10;;;;;;;7.78;1.58;;;7.50;99.90;;;;;;5456487;26;19995;-90
2024/04/17 01:34:36;;;;;;;9.57;1.60;;;7.60;99.90;;;;;;5455719;26;20003;-89
2024/04/17 01:37:02;;;;;;;2.15;1.20;;;7.50;99.90;;;;;;5456465;26;20007;-89
2024/04/17 01:39:27;;;;;;;4.88;1.20;;;7.60;99.90;;;;;;5456426;26;20003;-90
2024/04/17 01:41:53;;;;;;;2.13;1.00;;;7.50;99.90;;;;;;5455895;26;19994;-89
2024/04/17 01:44:18;;;;;;;4.47;0.98;;;7.60;99.90;;;;;;5456332;26;20007;-89
2024/04/17 01:46:47;;;;;;;5.75;1.35;;;7.50;99.90;;;;;;5456338;26;20010;-90
2024/04/17 01:49:13;;;;;;;3.80;0.85;;;7.60;99.90;;;;;;5455982;26;19999;-89
2024/04/17 01:51:38;;;;;;;1.35;1.17;;;7.60;99.90;;;;;;5455937;26;20003;-89
2024/04/17 01:54:04;;;;;;;3.33;0.80;;;7.60;99.90;;;;;;5456449;26;20010;-90
2024/04/17 01:56:29;;;;;;;4.28;1.08;;;7.60;99.90;;;;;;5455641;26;20013;-90
2024/04/17 01:58:55;;;;;;;3.92;1.00;;;7.60;99.90;;;;;;5456287;26;20442;-90
2024/04/17 02:01:20;;;;;;;4.40;1.30;;;7.60;99.90;;;;;;5456026;26;20457;-90
2024/04/17 02:03:47;;;;;;;2.92;1.08;;;7.60;99.90;;;;;;5455364;26;19994;-89
2024/04/17 02:06:15;;;;;;;3.55;0.98;;;8.00;99.90;;;;;;5456185;26;20023;-90
2024/04/17 02:08:41;;;;;;;2.83;1.40;;;7.60;99.90;;;;;;5456417;26;19995;-89
2024/04/17 02:11:06;;;;;;;5.55;1.17;;;7.60;99.90;;;;;;5455676;26;20071;-90
2024/04/17 02:13:32;;;;;;;2.20;0.82;;;7.90;99.90;;;;;;5456378;26;20017;-88
2024/04/17 02:16:05;;;;;;;5.18;1.33;;;7.60;99.90;;;;;;5455651;26;20443;-89
2024/04/17 02:18:31;;;;;;;2.40;0.90;;;7.60;99.90;;;;;;5469852;26;20034;-89
2024/04/17 02:20:58;;;;;;;3.95;1.10;;;7.50;99.90;;;;;;5459308;26;19999;-90
2024/04/17 02:23:28;;;;;;;7.20;0.80;;;7.50;99.90;;;;;;5454846;26;20072;-90
2024/04/17 02:25:56;;;;;;;4.10;1.00;;;7.50;99.90;;;;;;5455855;26;20021;-90
2024/04/17 02:28:22;;;;;;;1.75;0.88;;;7.40;99.90;;;;;;5455700;26;19999;-90
2024/04/17 02:30:47;;;;;;;3.08;0.95;;;7.40;99.90;;;;;;5455289;26;20013;-89
2024/04/17 02:33:13;;;;;;;4.88;0.80;;;7.40;99.90;;;;;;5455897;26;19995;-89
2024/04/17 02:35:39;;;;;;;3.10;0.70;;;7.40;99.90;;;;;;5455710;26;20009;-89
2024/04/17 02:38:04;;;;;;;5.15;0.73;;;7.40;99.90;;;;;;5455201;26;20005;-89
2024/04/17 02:40:30;;;;;;;3.25;0.90;;;7.40;99.90;;;;;;5456586;26;20009;-90
2024/04/17 02:42:55;;;;;;;5.10;0.90;;;7.60;99.90;;;;;;5456925;26;20443;-90
2024/04/17 02:45:21;;;;;;;5.63;0.80;;;7.50;99.90;;;;;;5455336;26;20458;-89
2024/04/17 02:47:46;;;;;;;2.05;0.75;;;7.50;99.90;;;;;;5456330;26;19995;-89
2024/04/17 02:50:12;;;;;;;5.43;0.95;;;7.50;99.90;;;;;;5455474;26;20013;-89
2024/04/17 02:52:38;;;;;;;6.95;1.40;;;7.60;99.90;;;;;;5454826;26;20011;-89
2024/04/17 02:55:04;;;;;;;2.67;1.00;;;7.50;99.90;;;;;;5455436;26;20021;-90
2024/04/17 02:57:29;;;;;;;2.20;0.50;;;7.50;99.90;;;;;;5454886;26;20003;-89
2024/04/17 02:59:55;;;;;;;1.73;0.95;;;7.50;99.90;;;;;;5454716;26;19999;-89
2024/04/17 03:02:20;;;;;;;3.20;0.80;;;7.40;99.90;;;;;;5455504;26;19999;-90
2024/04/17 03:04:46;;;;;;;2.67;0.60;;;7.40;99.90;;;;;;5455818;26;20075;-90
2024/04/17 03:07:11;;;;;;;3.08;0.70;;;7.40;99.90;;;;;;5455258;26;20441;-89
2024/04/17 03:09:37;;;;;;;4.28;0.80;;;7.30;99.90;;;;;;5458476;26;20311;-89
2024/04/17 03:12:03;;;;;;;4.20;0.95;;;7.30;99.90;;;;;;5471271;26;19998;-89
2024/04/17 03:14:28;;;;;;;5.30;1.00;;;7.40;99.90;;;;;;5439311;26;20003;-89
2024/04/17 03:16:54;;;;;;;3.45;0.93;;;7.40;99.90;;;;;;5470199;26;19999;-89
2024/04/17 03:19:19;;;;;;;5.03;0.90;;;7.40;99.90;;;;;;5457823;26;20013;-90
2024/04/17 03:21:45;;;;;;;4.60;1.25;;;7.40;99.90;;;;;;5454594;26;20009;-89
2024/04/17 03:24:10;;;;;;;3.85;0.77;;;7.50;99.90;;;;;;5456206;26;20450;-89
2024/04/17 03:26:36;;;;;;;4.90;0.90;;;7.50;99.90;;;;;;5457889;26;19999;-90
2024/04/17 03:29:01;;;;;;;6.82;0.85;;;7.40;99.90;;;;;;5462331;26;20010;-89
2024/04/17 03:31:27;;;;;;;3.50;0.90;;;7.50;99.90;;;;;;5465675;26;20010;-89
2024/04/17 03:33:52;;;;;;;3.58;0.82;;;7.40;99.90;;;;;;5459695;26;20010;-89
2024/04/17 03:36:18;;;;;;;5.85;1.42;;;7.50;99.90;;;;;;5461687;26;20011;-89
2024/04/17 03:38:43;;;;;;;3.33;0.80;;;7.40;99.90;;;;;;5464656;26;20003;-90
2024/04/17 03:41:09;;;;;;;4.55;1.00;;;7.50;99.90;;;;;;5467579;26;20003;-89
2024/04/17 03:43:34;;;;;;;2.60;0.75;;;7.50;99.90;;;;;;5463861;26;20007;-88
2024/04/17 03:46:03;;;;;;;5.13;1.10;;;7.50;99.90;;;;;;5430812;26;20014;-88
2024/04/17 03:48:28;;;;;;;6.18;0.90;;;7.50;99.90;;;;;;5456059;26;20013;-89
2024/04/17 03:50:54;;;;;;;5.80;1.10;;;7.40;99.90;;;;;;5454674;26;19999;-90
2024/04/17 03:53:20;;;;;;;3.25;0.77;;;7.40;99.90;;;;;;5454736;26;20345;-88
2024/04/17 03:55:46;;;;;;;3.30;1.00;;;7.30;99.90;;;;;;5454077;26;19999;-89
2024/04/17 03:58:12;;;;;;;10.15;1.42;;;7.30;99.90;;;;;;5456585;26;19999;-89
2024/04/17 04:00:37;;;;;;;3.58;1.25;;;7.30;99.90;;;;;;5469418;26;19999;-88
2024/04/17 04:03:03;;;;;;;5.10;1.10;;;7.30;99.90;;;;;;5455179;26;19995;-90
2024/04/17 04:05:28;;;;;;;1.75;0.90;;;7.30;99.90;;;;;;5453771;26;20006;-89
2024/04/17 04:07:54;;;;;;;6.15;1.48;;;7.30;99.90;;;;;;5454362;26;19998;-89
2024/04/17 04:10:19;;;;;;;4.20;1.30;;;7.30;99.90;;;;;;5453980;26;20003;-88
2024/04/17 04:12:45;;;;;;;5.63;1.40;;;7.50;99.90;;;;;;5454366;26;20312;-89
2024/04/17 04:15:10;;;;;;;6.05;1.88;;;7.20;99.90;;;;;;5454500;26;20017;-88
2024/04/17 04:17:36;;;;;;;4.80;1.35;;;7.20;99.90;;;;;;5453716;26;20005;-89
2024/04/17 04:20:03;;;;;;;8.48;1.63;;;7.20;99.90;;;;;;5454374;26;20071;-88
2024/04/17 04:22:28;;;;;;;6.07;1.25;;;7.10;99.90;;;;;;5453570;26;19999;-89
2024/04/17 04:24:54;;;;;;;10.07;1.38;;;7.10;99.90;;;;;;5453410;26;20007;-88
2024/04/17 04:27:19;;;;;;;9.38;2.00;;;7.10;99.90;;;;;;5453802;26;19999;-89
2024/04/17 04:29:45;;;;;;;7.25;2.03;;;7.10;99.90;;;;;;5453126;26;20002;-89
2024/04/17 04:32:10;;;;;;;7.22;1.75;;;7.10;99.90;;;;;;5453888;26;20079;-88
2024/04/17 04:34:36;;;;;;;5.30;1.30;;;7.10;99.90;;;;;;5453697;26;19999;-89
2024/04/17 04:37:01;;;;;;;14.48;2.38;;;7.10;99.90;;;;;;5453266;26;20010;-89
2024/04/17 04:39:27;;;;;;;7.78;1.38;;;7.10;99.90;;;;;;5455687;26;20003;-89
2024/04/17 04:41:53;;;;;;;4.57;1.55;;;7.10;99.90;;;;;;5457517;26;19999;-89
2024/04/17 04:44:19;;;;;;;10.68;1.77;;;7.10;99.90;;;;;;5457164;26;20018;-89
2024/04/17 04:46:45;;;;;;;11.25;2.10;;;7.10;99.90;;;;;;5457693;26;20315;-89
2024/04/17 04:49:11;;;;;;;7.63;1.90;;;7.10;99.90;;;;;;5457418;26;20101;-89
2024/04/17 04:51:36;;;;;;;4.70;1.75;;;7.10;99.90;;;;;;5456770;26;20007;-89
2024/04/17 04:54:02;;;;;;;6.22;1.50;;;7.60;99.90;;;;;;5457245;26;20009;-88
2024/04/17 04:56:28;;;;;;;16.42;2.25;;;7.10;99.90;;;;;;5456694;26;20446;-89
2024/04/17 04:58:54;;;;;;;7.65;2.20;;;7.10;99.90;;;;;;5456751;26;20006;-89
2024/04/17 05:01:20;;;;;;;12.68;1.88;;;7.10;99.90;;;;;;5457220;26;20003;-89
2024/04/17 05:03:45;;;;;;;9.63;2.03;;;7.00;99.90;;;;;;5457171;26;20013;-89
2024/04/17 05:06:11;;;;;;;5.85;1.80;;;7.00;99.90;;;;;;5456887;26;20456;-90
2024/04/17 05:08:36;;;;;;;12.80;1.85;;;7.00;99.90;;;;;;5456719;26;20412;-91
2024/04/17 05:11:02;;;;;;;12.27;1.83;;;7.00;99.90;;;;;;5456792;26;19999;-90
2024/04/17 05:13:28;;;;;;;8.68;2.17;;;7.00;99.90;;;;;;5456194;26;19999;-89
2024/04/17 05:15:53;;;;;;;8.68;1.98;;;7.00;99.90;;;;;;5456601;26;20027;-89
2024/04/17 05:18:19;;;;;;;8.95;2.03;;;6.90;99.90;;;;;;5470072;26;20001;-88
2024/04/17 05:20:45;;;;;;;6.90;1.45;;;6.90;99.90;;;;;;5458673;26;20003;-89
2024/04/17 05:23:11;;;;;;;13.80;1.77;;;7.00;99.90;;;;;;5457084;26;20009;-89
2024/04/17 05:25:37;;;;;;;11.15;2.50;;;7.00;99.90;;;;;;5456661;26;20399;-89
2024/04/17 05:28:05;;;;;;;10.63;1.80;;;7.00;99.90;;;;;;5456125;26;20006;-89
2024/04/17 05:30:31;;;;;;;8.05;2.47;;;7.00;99.90;;;;;;5457240;26;20010;-90
2024/04/17 05:32:56;;;;;;;9.75;2.08;;;8.10;99.90;;;;;;5457126;26;19999;-89
2024/04/17 05:35:22;;;;;;;7.10;2.00;;;7.00;99.90;;;;;;5456382;26;19998;-90
2024/04/17 05:38:03;;;;;;;7.75;1.60;;;7.60;99.90;;;;;;5456851;26;20010;-90
2024/04/17 05:40:28;;;;;;;13.77;1.88;;;7.00;99.90;;;;;;5456271;26;19998;-90
2024/04/17 05:43:06;;;;;;;11.05;2.00;;;7.70;99.90;;;;;;5457103;26;20028;-90
2024/04/17 05:45:31;;;;;;;14.15;2.13;;;6.80;99.90;;;;;;5456709;26;19999;-89
2024/04/17 05:47:57;;;;;;;6.68;2.10;;;7.00;99.90;;;;;;5456533;26;19999;-89
2024/04/17 05:50:22;;;;;;;17.25;2.38;;;6.90;99.90;;;;;;5455624;26;20014;-91
2024/04/17 05:52:48;;;;;;;12.50;1.83;;;7.00;99.90;;;;;;5456882;26;19999;-91
2024/04/17 05:55:13;;;;;;;5.75;1.45;;;6.90;99.90;;;;;;5456038;26;20441;-90
2024/04/17 05:57:39;;;;;;;10.82;2.30;;;6.90;99.90;;;;;;5456888;26;20503;-90
2024/04/17 06:00:05;;;;;;;9.57;1.75;;;6.90;99.90;;;;;;5456684;26;20326;-91
2024/04/17 06:02:30;;;;;;;5.25;1.83;;;7.00;99.90;;;;;;5456170;26;20013;-90
2024/04/17 06:04:58;;;;;;;10.13;1.67;;;7.10;99.90;;;;;;5456896;26;19999;-91
2024/04/17 06:07:23;;;;;;;7.03;1.40;;;7.10;99.90;;;;;;5456970;26;20438;-91
2024/04/17 06:09:49;;;;;;;7.20;1.40;;;7.20;99.90;;;;;;5456498;26;19999;-90
2024/04/17 06:12:14;;;;;;;6.93;1.10;;;8.40;99.90;;;;;;5456682;26;20075;-90
2024/04/17 06:14:40;;;;;;;9.23;1.45;;;7.30;99.90;;;;;;5456366;26;19999;-90
2024/04/17 06:17:06;;;;;;;9.88;1.38;;;8.10;99.90;;;;;;5455761;26;20022;-90
2024/04/17 06:19:32;;;;;;;8.88;1.85;;;7.50;99.90;;;;;;5456260;26;20013;-90
2024/04/17 06:21:57;;;;;;;3.15;1.17;;;8.20;99.90;;;;;;5455984;26;20017;-90
2024/04/17 06:24:24;;;;;;;9.57;1.13;;;7.50;99.90;;;;;;5455823;26;20447;-90
2024/04/17 06:26:50;;;;;;;3.67;0.90;;;7.50;99.90;;;;;;5456212;26;20067;-90
2024/04/17 06:29:15;;;;;;;5.50;1.08;;;7.50;99.90;;;;;;5456400;26;20435;-90
2024/04/17 06:31:41;;;;;;;8.77;0.95;;;7.50;99.90;;;;;;5456388;26;20450;-89
2024/04/17 06:34:06;;;;;;;8.65;1.30;;;7.50;99.90;;;;;;5456428;26;20323;-91
2024/04/17 06:36:32;;;;;;;2.42;0.75;;;7.60;99.90;;;;;;5462945;26;20009;-91
2024/04/17 06:38:58;;;;;;;2.20;0.80;;;7.60;99.90;;;;;;5463950;26;20044;-91
2024/04/17 06:41:23;;;;;;;8.90;0.80;;;7.60;99.90;;;;;;5456464;26;20026;-91
2024/04/17 06:43:49;;;;;;;6.47;0.63;;;7.60;99.90;;;;;;5455597;26;20005;-92
2024/04/17 06:46:14;;;;;;;5.72;0.77;;;7.80;99.90;;;;;;5456281;26;20010;-91
2024/04/17 06:48:40;;;;;;;6.25;0.75;;;7.90;99.90;;;;;;5456669;26;20392;-91
2024/04/17 06:51:05;;;;;;;6.03;1.23;;;7.90;99.90;;;;;;5455480;26;19995;-90
2024/04/17 06:53:31;;;;;;;1.80;0.88;;;8.00;99.90;;;;;;5456143;26;19999;-91
2024/04/17 06:55:58;;;;;;;7.03;1.10;;;8.00;99.90;;;;;;5457749;26;19995;-90
2024/04/17 06:58:23;;;;;;;6.30;1.02;;;8.10;99.90;;;;;;5456694;26;20007;-90
2024/04/17 07:00:49;;;;;;;4.35;1.30;;;8.10;99.90;;;;;;5456383;26;20006;-90
2024/04/17 07:03:14;;;;;;;3.00;0.88;;;8.20;99.90;;;;;;5456337;26;20449;-91
2024/04/17 07:05:40;;;;;;;3.47;0.90;;;8.20;99.90;;;;;;5456087;26;20322;-90
2024/04/17 07:08:05;;;;;;;6.00;1.05;;;8.20;99.90;;;;;;5456818;26;20334;-91
2024/04/17 07:10:31;;;;;;;4.25;0.70;;;8.30;99.90;;;;;;5456868;26;20040;-90
2024/04/17 07:12:57;;;;;;;6.10;0.80;;;8.30;99.90;;;;;;5456537;26;20009;-91
2024/04/17 07:15:22;;;;;;;2.22;0.75;;;8.40;99.90;;;;;;5457344;26;20348;-91
2024/04/17 07:17:48;;;;;;;2.13;0.75;;;8.40;99.90;;;;;;5457293;26;19998;-91
2024/04/17 07:20:16;;;;;;;4.43;0.82;;;8.50;99.90;;;;;;5457396;26;20066;-91
2024/04/17 07:22:41;;;;;;;3.03;0.93;;;8.50;99.90;;;;;;5458235;26;20003;-91
2024/04/17 07:25:07;;;;;;;5.03;0.95;;;8.60;99.90;;;;;;5458656;26;19999;-91
2024/04/17 07:27:33;;;;;;;6.25;0.80;;;8.60;99.90;;;;;;5458273;26;19999;-90
2024/04/17 07:29:58;;;;;;;12.57;2.05;;;8.70;99.90;;;;;;5467547;26;20131;-90
2024/04/17 07:32:24;;;;;;;4.85;0.98;;;8.70;99.90;;;;;;5472651;26;20014;-90
2024/04/17 07:34:51;;;;;;;8.35;1.10;;;8.60;99.90;;;;;;5469186;26;20013;-88
2024/04/17 07:37:18;;;;;;;8.27;1.20;;;8.50;99.90;;;;;;5461765;26;20076;-90
2024/04/17 07:39:44;;;;;;;4.25;1.33;;;8.30;99.90;;;;;;5455554;26;19998;-91
2024/04/17 07:42:09;;;;;;;5.25;1.60;;;9.10;99.90;;;;;;5454944;26;20007;-90
2024/04/17 07:44:35;;;;;;;3.80;0.75;;;7.80;99.90;;;;;;5454848;26;20009;-89
2024/04/17 07:47:00;;;;;;;3.08;1.38;;;7.70;99.90;;;;;;5454439;26;20014;-90
2024/04/17 07:49:26;;;;;;;3.25;1.08;;;7.50;99.90;;;;;;5454767;26;19994;-89
2024/04/17 07:51:52;;;;;;;2.50;0.73;;;7.40;99.90;;;;;;5454620;26;20042;-89
2024/04/17 07:54:17;;;;;;;5.00;1.02;;;7.30;99.90;;;;;;5453876;26;20089;-89
2024/04/17 07:56:43;;;;;;;1.90;0.70;;;7.30;99.90;;;;;;5467043;26;19995;-89
2024/04/17 07:59:08;;;;;;;4.10;0.98;;;7.20;99.90;;;;;;5460138;26;20003;-88
2024/04/17 08:01:34;;;;;;;2.95;0.90;;;7.20;99.90;;;;;;5453943;26;20342;-90
2024/04/17 08:03:59;;;;;;;2.50;1.08;;;7.30;99.90;;;;;;5454406;26;20014;-90
2024/04/17 08:06:25;;;;;;;7.38;1.17;;;7.30;99.90;;;;;;5453918;26;20045;-89
2024/04/17 08:08:50;;;;;;;3.75;0.80;;;7.30;99.90;;;;;;5453405;26;20060;-89
2024/04/17 08:11:19;;;;;;;3.97;0.90;;;7.30;99.90;;;;;;5453774;26;19999;-90
2024/04/17 08:13:45;;;;;;;5.93;0.82;;;7.40;99.90;;;;;;5454459;26;20070;-89
2024/04/17 08:16:11;;;;;;;5.60;1.25;;;7.50;99.90;;;;;;5457420;26;20342;-88
2024/04/17 08:18:36;;;;;;;4.90;1.10;;;7.60;99.90;;;;;;5457772;26;19998;-89
2024/04/17 08:21:03;;;;;;;5.15;1.15;;;7.80;99.90;;;;;;5457875;26;20014;-88
2024/04/17 08:23:29;;;;;;;2.60;1.10;;;7.80;99.90;;;;;;5457177;26;19999;-89
2024/04/17 08:25:55;;;;;;;4.88;0.82;;;7.90;99.90;;;;;;5457157;26;20129;-89
2024/04/17 08:28:20;;;;;;;2.65;0.77;;;7.90;99.90;;;;;;5457664;26;19995;-88
2024/04/17 08:30:46;;;;;;;3.47;0.80;;;8.00;99.90;;;;;;5456662;26;20075;-91
2024/04/17 08:33:11;;;;;;;4.10;0.88;;;8.00;99.90;;;;;;5457267;26;20006;-90
2024/04/17 08:35:38;;;;;;;1.10;0.60;;;8.00;99.90;;;;;;5457372;26;20030;-90
2024/04/17 08:38:03;;;;;;;2.97;0.70;;;8.00;99.90;;;;;;5457111;26;19994;-88
2024/04/17 08:40:30;;;;;;;2.85;1.05;;;8.10;99.90;;;;;;5456857;26;20345;-88
2024/04/17 08:42:58;;;;;;;6.53;0.80;;;8.00;99.90;;;;;;5457077;26;20098;-91
2024/04/17 08:45:34;;;;;;;1.80;0.80;;;8.00;99.90;;;;;;5456990;26;20037;-90
2024/04/17 08:48:01;;;;;;;2.22;0.65;;;8.00;99.90;;;;;;5457218;26;19995;-90
2024/04/17 08:50:31;;;;;;;1.55;0.55;;;8.00;99.90;;;;;;5456661;26;20453;-90
2024/04/17 08:53:03;;;;;;;1.65;0.75;;;8.00;99.90;;;;;;5457178;26;19995;-89
2024/04/17 08:55:29;;;;;;;1.45;0.75;;;8.10;99.90;;;;;;5456877;26;20456;-89
2024/04/17 08:57:56;;;;;;;7.35;0.88;;;8.10;99.90;;;;;;5456671;26;20007;-90
2024/04/17 09:00:26;;;;;;;2.83;0.75;;;8.10;99.90;;;;;;5456874;26;20009;-91
2024/04/17 09:02:56;;;;;;;1.92;0.73;;;8.20;99.90;;;;;;5456723;26;19998;-90
2024/04/17 09:05:24;;;;;;;2.17;0.95;;;8.20;99.90;;;;;;5456709;26;20048;-90
2024/04/17 09:07:51;;;;;;;6.03;1.00;;;8.30;99.90;;;;;;5457059;26;20026;-90
2024/04/17 09:10:18;;;;;;;2.47;0.80;;;8.30;99.90;;;;;;5457058;26;20098;-90
2024/04/17 09:12:44;;;;;;;6.45;1.35;;;8.30;99.90;;;;;;5456479;26;20006;-90
2024/04/17 09:15:13;;;;;;;5.68;1.38;;;8.30;99.90;;;;;;5472057;26;19998;-90
2024/04/17 09:17:38;;;;;;;4.03;1.20;;;8.20;99.90;;;;;;5457916;26;20461;-90
2024/04/17 09:20:04;;;;;;;2.30;0.90;;;8.20;99.90;;;;;;5456553;26;20003;-91
2024/04/17 09:22:30;;;;;;;4.80;0.73;;;8.30;99.90;;;;;;5457006;26;20023;-89
2024/04/17 09:24:56;;;;;;;6.57;1.20;;;8.30;99.90;;;;;;5456383;26;20323;-90
2024/04/17 09:27:22;;;;;;;3.42;1.20;;;8.30;99.90;;;;;;5456157;26;19995;-90
2024/04/17 09:29:47;;;;;;;3.25;0.90;;;8.30;99.90;;;;;;5456489;26;20003;-90
2024/04/17 09:32:14;;;;;;;5.85;1.08;;;8.40;99.90;;;;;;5456374;26;19999;-90
2024/04/17 09:34:40;;;;;;;2.17;1.10;;;8.40;99.90;;;;;;5457065;26;20438;-90
2024/04/17 09:37:08;;;;;;;4.15;1.10;;;8.40;99.90;;;;;;5456616;26;20026;-90
2024/04/17 09:39:35;;;;;;;2.80;1.52;;;8.40;99.90;;;;;;5455635;26;20042;-90
2024/04/17 09:42:05;;;;;;;2.00;0.90;;;8.50;99.90;;;;;;5456685;26;20010;-89
2024/04/17 09:44:36;;;;;;;1.98;1.40;;;8.60;99.90;;;;;;5456961;26;20370;-90
2024/04/17 09:47:02;;;;;;;6.22;1.10;;;8.60;99.90;;;;;;5456168;26;20043;-89
2024/04/17 09:49:28;;;;;;;4.00;1.45;;;8.60;99.90;;;;;;5456089;26;19998;-90
2024/04/17 09:51:59;;;;;;;1.92;0.90;;;8.60;99.90;;;;;;5456414;26;19999;-91
2024/04/17 09:54:27;;;;;;;4.18;1.08;;;8.60;99.90;;;;;;5455629;26;20005;-89
2024/04/17 09:56:54;;;;;;;4.03;1.08;;;8.60;99.90;;;;;;5456160;26;20025;-88
2024/04/17 09:59:21;;;;;;;4.03;1.00;;;8.60;99.90;;;;;;5456503;26;19995;-89
2024/04/17 10:01:47;;;;;;;2.50;1.05;;;8.60;99.90;;;;;;5455464;26;19999;-90
2024/04/17 10:04:17;;;;;;;2.45;1.05;;;8.50;99.90;;;;;;5455606;26;19995;-89
2024/04/17 10:06:44;;;;;;;1.75;0.80;;;8.20;99.90;;;;;;5456541;26;20142;-89
2024/04/17 10:09:13;;;;;;;3.28;1.17;;;7.60;99.90;;;;;;5455823;26;20454;-89
2024/04/17 10:11:39;;;;;;;1.85;0.98;;;7.30;99.90;;;;;;5456126;26;19998;-89
2024/04/17 10:14:14;;;;;;;1.58;1.05;;;7.50;99.90;;;;;;5456151;26;20002;-88
2024/04/17 10:16:41;;;;;;;2.83;0.80;;;6.80;99.90;;;;;;5456000;26;19999;-89
2024/04/17 10:19:07;;;;;;;1.85;0.70;;;6.70;99.90;;;;;;5456155;26;19999;-89
2024/04/17 10:21:36;;;;;;;1.17;0.80;;;6.60;99.90;;;;;;5455803;26;20005;-89
2024/04/17 10:24:03;;;;;;;1.15;0.55;;;6.40;99.90;;;;;;5456361;26;20031;-89
2024/04/17 10:26:45;;;;;;;1.17;0.30;;;6.30;99.90;;;;;;5456037;26;19999;-88
2024/04/17 10:29:29;;;;;;;1.10;0.30;;;6.10;99.90;;;;;;5455336;26;20002;-89
2024/04/17 10:32:09;;;;;;;1.38;0.65;;;5.90;99.90;;;;;;5462953;26;20006;-89
2024/04/17 10:34:46;;;;;;;1.67;0.65;;;5.90;99.90;;;;;;5463250;26;20009;-89
2024/04/17 10:37:14;;;;;;;0.40;0.40;;;5.80;99.90;;;;;;5454091;26;19995;-89
2024/04/17 10:39:40;;;;;;;0.47;0.30;;;5.90;99.90;;;;;;5455404;26;20075;-89
2024/04/17 10:42:12;;;;;;;0.55;0.35;;;5.90;99.90;;;;;;5455728;26;19998;-89
2024/04/17 10:44:52;;;;;;;0.40;0.30;;;6.00;99.90;;;;;;5454829;26;20030;-89
2024/04/17 10:47:26;;;;;;;0.45;0.45;;;6.10;99.90;;;;;;5455521;26;19999;-90
2024/04/17 10:50:02;;;;;;;0.70;0.60;;;6.20;99.90;;;;;;5455233;26;19995;-89
2024/04/17 10:52:29;;;;;;;0.50;0.40;;;6.20;99.90;;;;;;5456198;26;19998;-89
2024/04/17 10:54:56;;;;;;;0.93;0.50;;;6.30;99.90;;;;;;5455330;26;20010;-89
2024/04/17 10:57:24;;;;;;;2.22;0.55;;;6.40;99.90;;;;;;5455416;26;20006;-89
2024/04/17 10:59:50;;;;;;;0.38;0.38;;;6.40;99.90;;;;;;5456115;26;20003;-89
2024/04/17 11:02:17;;;;;;;0.82;0.40;;;6.40;99.90;;;;;;5456973;26;20039;-89
2024/04/17 11:04:43;;;;;;;2.65;0.60;;;6.50;99.90;;;;;;5456876;26;20075;-89
2024/04/17 11:07:12;;;;;;;3.30;0.73;;;6.50;99.90;;;;;;5457566;26;20006;-89
2024/04/17 11:09:45;;;;;;;0.65;0.52;;;6.50;99.90;;;;;;5457070;26;20005;-89
2024/04/17 11:12:15;;;;;;;0.60;0.60;;;6.60;99.90;;;;;;5456136;26;20009;-89
2024/04/17 11:14:41;;;;;;;3.00;0.73;;;6.60;99.90;;;;;;5456409;26;20035;-89
2024/04/17 11:17:08;;;;;;;5.35;0.90;;;6.70;99.90;;;;;;5456678;26;19998;-90
2024/04/17 11:19:34;;;;;;;0.70;0.70;;;6.80;99.90;;;;;;5455120;26;19999;-90
2024/04/17 11:22:15;;;;;;;1.95;0.55;;;6.90;99.90;;;;;;5455779;26;20013;-89
2024/04/17 11:24:48;;;;;;;1.75;0.60;;;7.00;99.90;;;;;;5457206;26;19998;-91
2024/04/17 11:27:19;;;;;;;0.85;0.40;;;7.10;99.90;;;;;;5463420;26;19999;-90
2024/04/17 11:29:46;;;;;;;0.57;0.50;;;8.20;99.90;;;;;;5464665;26;19999;-90
2024/04/17 11:32:12;;;;;;;0.85;0.85;;;7.40;99.90;;;;;;5462140;26;19998;-91
2024/04/17 11:34:37;;;;;;;3.35;0.68;;;7.50;99.90;;;;;;5459353;26;20354;-89
2024/04/17 11:37:04;;;;;;;2.45;0.93;;;7.60;99.90;;;;;;5466883;26;20003;-89
2024/04/17 11:39:30;;;;;;;1.40;1.20;;;7.70;99.90;;;;;;5469586;26;20023;-89
2024/04/17 11:41:56;;;;;;;1.08;0.90;;;7.90;99.90;;;;;;5469860;26;19998;-90
2024/04/17 11:44:21;;;;;;;3.70;1.05;;;8.10;99.90;;;;;;5455906;26;20049;-89
2024/04/17 11:46:47;;;;;;;4.88;0.88;;;8.20;99.90;;;;;;5455270;26;20052;-91
2024/04/17 11:49:12;;;;;;;1.38;1.02;;;8.40;99.90;;;;;;5452958;26;20344;-90
2024/04/17 11:51:38;;;;;;;1.23;1.02;;;8.40;99.90;;;;;;5470897;26;20395;-90
2024/04/17 11:54:03;;;;;;;0.50;0.50;;;8.40;99.90;;;;;;5463120;26;20006;-90
2024/04/17 11:56:29;;;;;;;0.57;0.57;;;8.30;99.90;;;;;;5454631;26;19999;-89
2024/04/17 11:58:55;;;;;;;1.58;0.50;;;8.30;99.90;;;;;;5454019;26;20010;-89
2024/04/17 12:01:21;;;;;;;0.30;0.30;;;8.00;99.90;;;;;;5453769;26;20003;-89
2024/04/17 12:03:46;;;;;;;3.33;0.43;;;7.80;99.90;;;;;;5454154;26;20016;-91
2024/04/17 12:06:12;;;;;;;1.30;0.35;;;7.60;99.90;;;;;;5454116;26;19999;-90
2024/04/17 12:08:38;;;;;;;1.23;0.50;;;8.10;99.90;;;;;;5453953;26;20442;-88
2024/04/17 12:11:03;;;;;;;1.80;0.68;;;7.40;99.90;;;;;;5454470;26;20003;-90
2024/04/17 12:13:29;;;;;;;1.30;0.75;;;7.30;99.90;;;;;;5454217;26;19999;-90
2024/04/17 12:15:55;;;;;;;0.45;0.40;;;7.20;99.90;;;;;;5453616;26;20443;-88
2024/04/17 12:18:20;;;;;;;0.75;0.40;;;7.20;99.90;;;;;;5454524;26;20412;-90
2024/04/17 12:20:46;;;;;;;0.63;0.47;;;7.20;99.90;;;;;;5456043;26;20003;-90
2024/04/17 12:23:18;;;;;;;2.25;1.00;;;7.30;99.90;;;;;;5454370;26;20049;-90
2024/04/17 12:28:29;;;;;;;0.60;0.40;;;7.40;99.90;;;;;;5453836;26;20014;-88
2024/04/17 12:30:55;;;;;;;1.13;0.45;;;7.50;99.90;;;;;;5453826;26;20010;-89
2024/04/17 12:33:21;;;;;;;0.57;0.57;;;7.50;99.90;;;;;;5454177;26;19999;-89
2024/04/17 12:35:47;;;;;;;1.00;0.70;;;7.60;99.90;;;;;;5452993;26;19999;-90
2024/04/17 12:38:13;;;;;;;1.17;0.70;;;7.60;99.90;;;;;;5453901;26;20009;-89
2024/04/17 12:40:38;;;;;;;1.00;0.77;;;7.70;99.90;;;;;;5453567;26;20013;-90
2024/04/17 12:43:06;;;;;;;4.22;1.63;;;7.70;99.90;;;;;;5453300;26;20079;-89
2024/04/17 12:45:31;;;;;;;1.67;0.75;;;7.90;99.90;;;;;;5453351;26;20003;-89
2024/04/17 12:47:58;;;;;;;0.60;0.60;;;9.00;99.90;;;;;;5453347;26;20009;-89
2024/04/17 12:50:24;;;;;;;1.08;0.70;;;8.10;99.90;;;;;;5453096;26;20015;-89
2024/04/17 12:52:53;;;;;;;0.85;0.75;;;8.20;99.90;;;;;;5453344;26;20395;-89
2024/04/17 12:55:18;;;;;;;1.27;0.90;;;8.20;99.90;;;;;;5452925;26;20009;-89